sensor_id;sensor_type;location;lat;lon;timestamp;P1;durP1;ratioP1;P2;durP2;ratioP2
72127;SDS011;60000;51.030;7.024;2024-02-04T00:00:13;9.57;;;4.73;;
72127;SDS011;60000;51.030;7.024;2024-02-04T00:02:39;10.65;;;4.85;;
72127;SDS011;60000;51.030;7.024;2024-02-04T00:05:05;7.53;;;3.50;;
72127;SDS011;60000;51.030;7.024;2024-02-04T00:07:31;8.00;;;3.40;;
72127;SDS011;60000;51.030;7.024;2024-02-04T00:09:56;6.87;;;2.90;;
72127;SDS011;60000;51.030;7.024;2024-02-04T00:12:21;7.40;;;2.37;;
72127;SDS011;60000;51.030;7.024;2024-02-04T00:14:47;7.13;;;2.43;;
72127;SDS011;60000;51.030;7.024;2024-02-04T00:17:14;7.20;;;2.78;;
72127;SDS011;60000;51.030;7.024;2024-02-04T00:19:40;4.43;;;1.70;;
72127;SDS011;60000;51.030;7.024;2024-02-04T00:22:05;3.97;;;1.60;;
72127;SDS011;60000;51.030;7.024;2024-02-04T00:24:30;4.97;;;1.73;;
72127;SDS011;60000;51.030;7.024;2024-02-04T00:26:56;4.73;;;2.17;;
72127;SDS011;60000;51.030;7.024;2024-02-04T00:29:21;4.43;;;1.93;;
72127;SDS011;60000;51.030;7.024;2024-02-04T00:31:46;4.83;;;1.60;;
72127;SDS011;60000;51.030;7.024;2024-02-04T00:34:12;3.70;;;1.70;;
72127;SDS011;60000;51.030;7.024;2024-02-04T00:36:37;4.30;;;1.70;;
72127;SDS011;60000;51.030;7.024;2024-02-04T00:39:02;5.00;;;1.50;;
72127;SDS011;60000;51.030;7.024;2024-02-04T00:41:28;5.00;;;1.67;;
72127;SDS011;60000;51.030;7.024;2024-02-04T00:43:53;4.23;;;1.67;;
72127;SDS011;60000;51.030;7.024;2024-02-04T00:46:18;5.23;;;2.30;;
72127;SDS011;60000;51.030;7.024;2024-02-04T00:48:44;6.40;;;2.20;;
72127;SDS011;60000;51.030;7.024;2024-02-04T00:51:09;4.97;;;2.30;;
72127;SDS011;60000;51.030;7.024;2024-02-04T00:53:35;5.10;;;2.20;;
72127;SDS011;60000;51.030;7.024;2024-02-04T00:56:01;5.78;;;2.50;;
72127;SDS011;60000;51.030;7.024;2024-02-04T00:58:27;6.80;;;2.80;;
72127;SDS011;60000;51.030;7.024;2024-02-04T01:00:53;7.00;;;2.90;;
72127;SDS011;60000;51.030;7.024;2024-02-04T01:03:18;6.10;;;2.80;;
72127;SDS011;60000;51.030;7.024;2024-02-04T01:05:43;6.40;;;2.73;;
72127;SDS011;60000;51.030;7.024;2024-02-04T01:08:08;8.43;;;3.00;;
72127;SDS011;60000;51.030;7.024;2024-02-04T01:10:34;6.00;;;2.83;;
72127;SDS011;60000;51.030;7.024;2024-02-04T01:12:59;8.77;;;3.73;;
72127;SDS011;60000;51.030;7.024;2024-02-04T01:15:24;7.17;;;3.30;;
72127;SDS011;60000;51.030;7.024;2024-02-04T01:17:51;7.15;;;3.60;;
72127;SDS011;60000;51.030;7.024;2024-02-04T01:20:17;7.20;;;3.50;;
72127;SDS011;60000;51.030;7.024;2024-02-04T01:22:43;6.07;;;3.10;;
72127;SDS011;60000;51.030;7.024;2024-02-04T01:25:08;8.10;;;3.80;;
72127;SDS011;60000;51.030;7.024;2024-02-04T01:27:34;6.50;;;3.25;;
72127;SDS011;60000;51.030;7.024;2024-02-04T01:29:59;6.90;;;3.30;;
72127;SDS011;60000;51.030;7.024;2024-02-04T01:32:24;8.67;;;2.87;;
72127;SDS011;60000;51.030;7.024;2024-02-04T01:34:49;6.50;;;2.80;;
72127;SDS011;60000;51.030;7.024;2024-02-04T01:37:15;5.87;;;2.57;;
72127;SDS011;60000;51.030;7.024;2024-02-04T01:39:40;6.37;;;2.93;;
72127;SDS011;60000;51.030;7.024;2024-02-04T01:42:05;7.17;;;2.77;;
72127;SDS011;60000;51.030;7.024;2024-02-04T01:44:31;5.40;;;2.43;;
72127;SDS011;60000;51.030;7.024;2024-02-04T01:46:56;6.75;;;2.90;;
72127;SDS011;60000;51.030;7.024;2024-02-04T01:49:22;6.97;;;3.30;;
72127;SDS011;60000;51.030;7.024;2024-02-04T01:51:47;8.37;;;4.00;;
72127;SDS011;60000;51.030;7.024;2024-02-04T01:54:13;8.15;;;4.50;;
72127;SDS011;60000;51.030;7.024;2024-02-04T01:56:39;7.87;;;3.87;;
72127;SDS011;60000;51.030;7.024;2024-02-04T01:59:05;10.50;;;4.57;;
72127;SDS011;60000;51.030;7.024;2024-02-04T02:01:30;9.63;;;4.70;;
72127;SDS011;60000;51.030;7.024;2024-02-04T02:03:56;8.98;;;4.80;;
72127;SDS011;60000;51.030;7.024;2024-02-04T02:06:22;9.53;;;4.77;;
72127;SDS011;60000;51.030;7.024;2024-02-04T02:08:48;10.05;;;4.60;;
72127;SDS011;60000;51.030;7.024;2024-02-04T02:11:19;8.50;;;4.68;;
72127;SDS011;60000;51.030;7.024;2024-02-04T02:13:50;9.60;;;4.57;;
72127;SDS011;60000;51.030;7.024;2024-02-04T02:16:22;9.27;;;5.45;;
72127;SDS011;60000;51.030;7.024;2024-02-04T02:18:52;10.47;;;5.20;;
72127;SDS011;60000;51.030;7.024;2024-02-04T02:26:51;10.32;;;5.25;;
72127;SDS011;60000;51.030;7.024;2024-02-04T02:29:18;11.27;;;4.78;;
72127;SDS011;60000;51.030;7.024;2024-02-04T02:31:45;11.77;;;4.83;;
72127;SDS011;60000;51.030;7.024;2024-02-04T02:34:11;10.25;;;5.07;;
72127;SDS011;60000;51.030;7.024;2024-02-04T02:36:40;10.88;;;5.95;;
72127;SDS011;60000;51.030;7.024;2024-02-04T02:39:14;10.90;;;5.17;;
72127;SDS011;60000;51.030;7.024;2024-02-04T02:41:42;12.30;;;6.35;;
72127;SDS011;60000;51.030;7.024;2024-02-04T02:44:11;11.10;;;5.13;;
72127;SDS011;60000;51.030;7.024;2024-02-04T02:46:37;9.35;;;4.40;;
72127;SDS011;60000;51.030;7.024;2024-02-04T02:49:03;11.25;;;5.07;;
72127;SDS011;60000;51.030;7.024;2024-02-04T02:51:29;8.90;;;4.77;;
72127;SDS011;60000;51.030;7.024;2024-02-04T02:53:54;10.10;;;5.18;;
72127;SDS011;60000;51.030;7.024;2024-02-04T02:56:20;11.93;;;6.75;;
72127;SDS011;60000;51.030;7.024;2024-02-04T02:58:45;11.27;;;6.00;;
72127;SDS011;60000;51.030;7.024;2024-02-04T03:01:10;13.23;;;6.73;;
72127;SDS011;60000;51.030;7.024;2024-02-04T03:03:36;12.27;;;5.47;;
72127;SDS011;60000;51.030;7.024;2024-02-04T03:06:01;8.50;;;4.80;;
72127;SDS011;60000;51.030;7.024;2024-02-04T03:08:26;8.17;;;4.43;;
72127;SDS011;60000;51.030;7.024;2024-02-04T03:10:52;8.40;;;4.90;;
72127;SDS011;60000;51.030;7.024;2024-02-04T03:13:17;8.85;;;4.43;;
72127;SDS011;60000;51.030;7.024;2024-02-04T03:15:43;9.40;;;4.75;;
72127;SDS011;60000;51.030;7.024;2024-02-04T03:18:09;9.10;;;5.03;;
72127;SDS011;60000;51.030;7.024;2024-02-04T03:20:34;9.82;;;4.82;;
72127;SDS011;60000;51.030;7.024;2024-02-04T03:22:59;8.65;;;4.50;;
72127;SDS011;60000;51.030;7.024;2024-02-04T03:25:25;8.97;;;4.53;;
72127;SDS011;60000;51.030;7.024;2024-02-04T03:27:51;8.98;;;4.70;;
72127;SDS011;60000;51.030;7.024;2024-02-04T03:30:18;11.77;;;5.60;;
72127;SDS011;60000;51.030;7.024;2024-02-04T03:32:43;9.48;;;4.80;;
72127;SDS011;60000;51.030;7.024;2024-02-04T03:35:08;9.63;;;4.63;;
72127;SDS011;60000;51.030;7.024;2024-02-04T03:37:34;9.67;;;4.27;;
72127;SDS011;60000;51.030;7.024;2024-02-04T03:39:59;7.10;;;3.33;;
72127;SDS011;60000;51.030;7.024;2024-02-04T03:42:24;7.23;;;3.67;;
72127;SDS011;60000;51.030;7.024;2024-02-04T03:44:49;9.40;;;4.47;;
72127;SDS011;60000;51.030;7.024;2024-02-04T03:47:15;8.23;;;4.03;;
72127;SDS011;60000;51.030;7.024;2024-02-04T03:49:40;8.27;;;4.20;;
72127;SDS011;60000;51.030;7.024;2024-02-04T03:52:06;10.10;;;4.00;;
72127;SDS011;60000;51.030;7.024;2024-02-04T03:54:31;8.37;;;4.37;;
72127;SDS011;60000;51.030;7.024;2024-02-04T03:56:56;9.43;;;4.40;;
72127;SDS011;60000;51.030;7.024;2024-02-04T03:59:22;8.20;;;3.70;;
72127;SDS011;60000;51.030;7.024;2024-02-04T04:01:48;6.87;;;3.40;;
72127;SDS011;60000;51.030;7.024;2024-02-04T04:04:14;6.65;;;3.30;;
72127;SDS011;60000;51.030;7.024;2024-02-04T04:06:39;6.25;;;3.05;;
72127;SDS011;60000;51.030;7.024;2024-02-04T04:09:05;8.27;;;3.67;;
72127;SDS011;60000;51.030;7.024;2024-02-04T04:11:31;6.80;;;3.00;;
72127;SDS011;60000;51.030;7.024;2024-02-04T04:13:56;7.33;;;3.20;;
72127;SDS011;60000;51.030;7.024;2024-02-04T04:16:21;6.75;;;3.13;;
72127;SDS011;60000;51.030;7.024;2024-02-04T04:18:47;7.72;;;3.15;;
72127;SDS011;60000;51.030;7.024;2024-02-04T04:21:12;6.30;;;2.90;;
72127;SDS011;60000;51.030;7.024;2024-02-04T04:23:38;8.27;;;3.17;;
72127;SDS011;60000;51.030;7.024;2024-02-04T04:26:03;7.00;;;3.50;;
72127;SDS011;60000;51.030;7.024;2024-02-04T04:28:28;7.60;;;3.92;;
72127;SDS011;60000;51.030;7.024;2024-02-04T04:30:54;8.20;;;3.58;;
72127;SDS011;60000;51.030;7.024;2024-02-04T04:33:19;7.33;;;3.53;;
72127;SDS011;60000;51.030;7.024;2024-02-04T04:35:45;6.07;;;2.77;;
72127;SDS011;60000;51.030;7.024;2024-02-04T04:38:10;6.97;;;2.90;;
72127;SDS011;60000;51.030;7.024;2024-02-04T04:40:35;7.50;;;3.40;;
72127;SDS011;60000;51.030;7.024;2024-02-04T04:43:01;6.07;;;2.60;;
72127;SDS011;60000;51.030;7.024;2024-02-04T04:45:26;6.10;;;2.65;;
72127;SDS011;60000;51.030;7.024;2024-02-04T04:47:51;6.43;;;2.90;;
72127;SDS011;60000;51.030;7.024;2024-02-04T04:50:17;6.30;;;2.60;;
72127;SDS011;60000;51.030;7.024;2024-02-04T04:52:42;6.60;;;2.47;;
72127;SDS011;60000;51.030;7.024;2024-02-04T04:55:07;6.00;;;2.67;;
72127;SDS011;60000;51.030;7.024;2024-02-04T04:57:33;6.07;;;2.35;;
72127;SDS011;60000;51.030;7.024;2024-02-04T04:59:58;6.32;;;2.75;;
72127;SDS011;60000;51.030;7.024;2024-02-04T05:02:28;7.63;;;2.90;;
72127;SDS011;60000;51.030;7.024;2024-02-04T05:04:54;6.80;;;2.87;;
72127;SDS011;60000;51.030;7.024;2024-02-04T05:07:19;8.15;;;3.00;;
72127;SDS011;60000;51.030;7.024;2024-02-04T05:09:44;8.83;;;3.97;;
72127;SDS011;60000;51.030;7.024;2024-02-04T05:12:10;7.03;;;3.10;;
72127;SDS011;60000;51.030;7.024;2024-02-04T05:14:35;8.13;;;3.95;;
72127;SDS011;60000;51.030;7.024;2024-02-04T05:17:01;7.40;;;3.58;;
72127;SDS011;60000;51.030;7.024;2024-02-04T05:19:26;7.93;;;3.90;;
72127;SDS011;60000;51.030;7.024;2024-02-04T05:21:51;8.23;;;3.80;;
72127;SDS011;60000;51.030;7.024;2024-02-04T05:24:17;9.47;;;4.03;;
72127;SDS011;60000;51.030;7.024;2024-02-04T05:26:42;8.40;;;4.17;;
72127;SDS011;60000;51.030;7.024;2024-02-04T05:29:07;11.33;;;4.10;;
72127;SDS011;60000;51.030;7.024;2024-02-04T05:31:32;9.07;;;4.33;;
72127;SDS011;60000;51.030;7.024;2024-02-04T05:33:58;8.10;;;3.93;;
72127;SDS011;60000;51.030;7.024;2024-02-04T05:36:23;10.27;;;4.77;;
72127;SDS011;60000;51.030;7.024;2024-02-04T05:38:48;9.87;;;4.57;;
72127;SDS011;60000;51.030;7.024;2024-02-04T05:41:13;10.35;;;4.30;;
72127;SDS011;60000;51.030;7.024;2024-02-04T05:43:39;11.23;;;4.90;;
72127;SDS011;60000;51.030;7.024;2024-02-04T05:46:04;9.20;;;4.40;;
72127;SDS011;60000;51.030;7.024;2024-02-04T05:48:30;11.60;;;4.53;;
72127;SDS011;60000;51.030;7.024;2024-02-04T05:50:55;9.77;;;4.17;;
72127;SDS011;60000;51.030;7.024;2024-02-04T05:53:20;12.93;;;5.20;;
72127;SDS011;60000;51.030;7.024;2024-02-04T05:55:46;11.87;;;5.23;;
72127;SDS011;60000;51.030;7.024;2024-02-04T05:58:11;11.82;;;5.10;;
72127;SDS011;60000;51.030;7.024;2024-02-04T06:00:38;19.48;;;11.13;;
72127;SDS011;60000;51.030;7.024;2024-02-04T06:03:04;13.53;;;6.80;;
72127;SDS011;60000;51.030;7.024;2024-02-04T06:05:30;16.58;;;8.18;;
72127;SDS011;60000;51.030;7.024;2024-02-04T06:07:55;17.00;;;9.57;;
72127;SDS011;60000;51.030;7.024;2024-02-04T06:10:20;17.37;;;9.53;;
72127;SDS011;60000;51.030;7.024;2024-02-04T06:12:46;15.40;;;8.03;;
72127;SDS011;60000;51.030;7.024;2024-02-04T06:15:12;14.20;;;7.88;;
72127;SDS011;60000;51.030;7.024;2024-02-04T06:17:38;16.77;;;8.90;;
72127;SDS011;60000;51.030;7.024;2024-02-04T06:20:04;13.07;;;6.90;;
72127;SDS011;60000;51.030;7.024;2024-02-04T06:22:30;8.65;;;4.38;;
72127;SDS011;60000;51.030;7.024;2024-02-04T06:24:55;9.80;;;5.03;;
72127;SDS011;60000;51.030;7.024;2024-02-04T06:27:21;11.53;;;5.53;;
72127;SDS011;60000;51.030;7.024;2024-02-04T06:29:46;12.25;;;5.03;;
72127;SDS011;60000;51.030;7.024;2024-02-04T06:32:11;11.70;;;5.97;;
72127;SDS011;60000;51.030;7.024;2024-02-04T06:34:38;11.53;;;6.17;;
72127;SDS011;60000;51.030;7.024;2024-02-04T06:37:03;11.07;;;5.82;;
72127;SDS011;60000;51.030;7.024;2024-02-04T06:39:29;11.97;;;6.13;;
72127;SDS011;60000;51.030;7.024;2024-02-04T06:41:54;10.30;;;5.10;;
72127;SDS011;60000;51.030;7.024;2024-02-04T06:44:19;9.87;;;4.80;;
72127;SDS011;60000;51.030;7.024;2024-02-04T06:46:45;8.13;;;3.83;;
72127;SDS011;60000;51.030;7.024;2024-02-04T06:49:10;7.07;;;3.10;;
72127;SDS011;60000;51.030;7.024;2024-02-04T06:51:36;8.32;;;3.53;;
72127;SDS011;60000;51.030;7.024;2024-02-04T06:54:01;8.90;;;3.40;;
72127;SDS011;60000;51.030;7.024;2024-02-04T06:56:26;7.70;;;4.07;;
72127;SDS011;60000;51.030;7.024;2024-02-04T06:58:52;11.60;;;3.40;;
72127;SDS011;60000;51.030;7.024;2024-02-04T07:01:17;6.97;;;3.37;;
72127;SDS011;60000;51.030;7.024;2024-02-04T07:03:42;7.83;;;3.73;;
72127;SDS011;60000;51.030;7.024;2024-02-04T07:06:08;8.70;;;4.60;;
72127;SDS011;60000;51.030;7.024;2024-02-04T07:08:34;9.82;;;4.75;;
72127;SDS011;60000;51.030;7.024;2024-02-04T07:10:59;19.30;;;11.32;;
72127;SDS011;60000;51.030;7.024;2024-02-04T07:13:25;19.98;;;12.52;;
72127;SDS011;60000;51.030;7.024;2024-02-04T07:15:50;9.73;;;5.17;;
72127;SDS011;60000;51.030;7.024;2024-02-04T07:18:15;7.57;;;3.83;;
72127;SDS011;60000;51.030;7.024;2024-02-04T07:20:44;10.25;;;3.95;;
72127;SDS011;60000;51.030;7.024;2024-02-04T07:23:09;5.47;;;2.50;;
72127;SDS011;60000;51.030;7.024;2024-02-04T07:25:34;4.90;;;2.15;;
72127;SDS011;60000;51.030;7.024;2024-02-04T07:28:00;9.40;;;2.40;;
72127;SDS011;60000;51.030;7.024;2024-02-04T07:30:26;5.47;;;2.00;;
72127;SDS011;60000;51.030;7.024;2024-02-04T07:32:51;5.70;;;2.50;;
72127;SDS011;60000;51.030;7.024;2024-02-04T07:35:16;7.93;;;2.23;;
72127;SDS011;60000;51.030;7.024;2024-02-04T07:37:42;7.40;;;2.57;;
72127;SDS011;60000;51.030;7.024;2024-02-04T07:40:07;5.27;;;2.13;;
72127;SDS011;60000;51.030;7.024;2024-02-04T07:42:33;4.80;;;1.80;;
72127;SDS011;60000;51.030;7.024;2024-02-04T07:44:58;3.92;;;1.65;;
72127;SDS011;60000;51.030;7.024;2024-02-04T07:47:24;4.70;;;1.83;;
72127;SDS011;60000;51.030;7.024;2024-02-04T07:49:49;5.80;;;2.40;;
72127;SDS011;60000;51.030;7.024;2024-02-04T07:52:15;5.65;;;2.95;;
72127;SDS011;60000;51.030;7.024;2024-02-04T07:54:41;7.57;;;2.80;;
72127;SDS011;60000;51.030;7.024;2024-02-04T07:57:08;9.90;;;5.40;;
72127;SDS011;60000;51.030;7.024;2024-02-04T07:59:34;6.50;;;3.15;;
72127;SDS011;60000;51.030;7.024;2024-02-04T08:02:00;8.63;;;4.82;;
72127;SDS011;60000;51.030;7.024;2024-02-04T08:04:25;6.17;;;3.73;;
72127;SDS011;60000;51.030;7.024;2024-02-04T08:06:51;7.50;;;4.63;;
72127;SDS011;60000;51.030;7.024;2024-02-04T08:09:19;9.23;;;4.47;;
72127;SDS011;60000;51.030;7.024;2024-02-04T08:11:45;7.70;;;3.13;;
72127;SDS011;60000;51.030;7.024;2024-02-04T08:14:10;6.38;;;2.72;;
72127;SDS011;60000;51.030;7.024;2024-02-04T08:16:36;6.97;;;2.80;;
72127;SDS011;60000;51.030;7.024;2024-02-04T08:19:01;8.40;;;3.73;;
72127;SDS011;60000;51.030;7.024;2024-02-04T08:21:26;7.47;;;3.30;;
72127;SDS011;60000;51.030;7.024;2024-02-04T08:23:52;6.30;;;3.00;;
72127;SDS011;60000;51.030;7.024;2024-02-04T08:26:17;7.67;;;3.33;;
72127;SDS011;60000;51.030;7.024;2024-02-04T08:28:42;7.10;;;3.03;;
72127;SDS011;60000;51.030;7.024;2024-02-04T08:31:08;7.57;;;3.63;;
72127;SDS011;60000;51.030;7.024;2024-02-04T08:33:33;7.57;;;3.25;;
72127;SDS011;60000;51.030;7.024;2024-02-04T08:35:58;7.93;;;3.22;;
72127;SDS011;60000;51.030;7.024;2024-02-04T08:38:24;9.47;;;3.30;;
72127;SDS011;60000;51.030;7.024;2024-02-04T08:40:49;8.80;;;3.27;;
72127;SDS011;60000;51.030;7.024;2024-02-04T08:43:14;6.67;;;2.40;;
72127;SDS011;60000;51.030;7.024;2024-02-04T08:45:40;6.13;;;2.73;;
72127;SDS011;60000;51.030;7.024;2024-02-04T08:48:06;7.22;;;2.83;;
72127;SDS011;60000;51.030;7.024;2024-02-04T08:50:32;7.73;;;2.83;;
72127;SDS011;60000;51.030;7.024;2024-02-04T08:52:57;7.97;;;2.93;;
72127;SDS011;60000;51.030;7.024;2024-02-04T08:55:23;8.73;;;2.85;;
72127;SDS011;60000;51.030;7.024;2024-02-04T08:57:48;11.70;;;4.70;;
72127;SDS011;60000;51.030;7.024;2024-02-04T09:00:14;28.57;;;12.43;;
72127;SDS011;60000;51.030;7.024;2024-02-04T09:02:40;9.27;;;4.45;;
72127;SDS011;60000;51.030;7.024;2024-02-04T09:05:06;8.17;;;3.40;;
72127;SDS011;60000;51.030;7.024;2024-02-04T09:07:31;9.07;;;3.80;;
72127;SDS011;60000;51.030;7.024;2024-02-04T09:09:57;7.50;;;3.10;;
72127;SDS011;60000;51.030;7.024;2024-02-04T09:12:22;10.37;;;3.90;;
72127;SDS011;60000;51.030;7.024;2024-02-04T09:14:47;10.60;;;4.10;;
72127;SDS011;60000;51.030;7.024;2024-02-04T09:17:13;10.27;;;4.30;;
72127;SDS011;60000;51.030;7.024;2024-02-04T09:19:38;9.77;;;5.30;;
72127;SDS011;60000;51.030;7.024;2024-02-04T09:22:04;9.00;;;4.47;;
72127;SDS011;60000;51.030;7.024;2024-02-04T09:24:29;8.73;;;3.73;;
72127;SDS011;60000;51.030;7.024;2024-02-04T09:26:55;9.23;;;3.70;;
72127;SDS011;60000;51.030;7.024;2024-02-04T09:29:20;6.93;;;2.60;;
72127;SDS011;60000;51.030;7.024;2024-02-04T09:31:45;7.43;;;3.10;;
72127;SDS011;60000;51.030;7.024;2024-02-04T09:34:11;8.40;;;3.30;;
72127;SDS011;60000;51.030;7.024;2024-02-04T09:36:36;9.83;;;3.60;;
72127;SDS011;60000;51.030;7.024;2024-02-04T09:39:01;7.33;;;2.77;;
72127;SDS011;60000;51.030;7.024;2024-02-04T09:41:27;7.97;;;3.07;;
72127;SDS011;60000;51.030;7.024;2024-02-04T09:43:52;7.13;;;2.50;;
72127;SDS011;60000;51.030;7.024;2024-02-04T09:46:18;6.95;;;2.60;;
72127;SDS011;60000;51.030;7.024;2024-02-04T09:48:47;7.23;;;3.23;;
72127;SDS011;60000;51.030;7.024;2024-02-04T09:51:15;6.60;;;3.08;;
72127;SDS011;60000;51.030;7.024;2024-02-04T09:53:43;6.77;;;3.80;;
72127;SDS011;60000;51.030;7.024;2024-02-04T09:56:09;6.80;;;3.00;;
72127;SDS011;60000;51.030;7.024;2024-02-04T09:58:35;9.25;;;3.45;;
72127;SDS011;60000;51.030;7.024;2024-02-04T10:01:01;6.63;;;2.97;;
72127;SDS011;60000;51.030;7.024;2024-02-04T10:03:29;7.07;;;2.97;;
72127;SDS011;60000;51.030;7.024;2024-02-04T10:05:54;7.67;;;3.00;;
72127;SDS011;60000;51.030;7.024;2024-02-04T10:08:20;9.50;;;3.10;;
72127;SDS011;60000;51.030;7.024;2024-02-04T10:10:46;8.35;;;3.50;;
72127;SDS011;60000;51.030;7.024;2024-02-04T10:13:12;7.10;;;3.00;;
72127;SDS011;60000;51.030;7.024;2024-02-04T10:15:37;5.20;;;2.47;;
72127;SDS011;60000;51.030;7.024;2024-02-04T10:18:03;7.13;;;2.90;;
72127;SDS011;60000;51.030;7.024;2024-02-04T10:20:30;7.97;;;2.70;;
72127;SDS011;60000;51.030;7.024;2024-02-04T10:22:55;8.27;;;3.17;;
72127;SDS011;60000;51.030;7.024;2024-02-04T10:25:20;8.37;;;2.73;;
72127;SDS011;60000;51.030;7.024;2024-02-04T10:27:46;6.65;;;2.25;;
72127;SDS011;60000;51.030;7.024;2024-02-04T10:30:12;7.63;;;2.73;;
72127;SDS011;60000;51.030;7.024;2024-02-04T10:32:39;27.95;;;14.18;;
72127;SDS011;60000;51.030;7.024;2024-02-04T10:35:04;11.50;;;5.97;;
72127;SDS011;60000;51.030;7.024;2024-02-04T10:37:29;8.53;;;3.70;;
72127;SDS011;60000;51.030;7.024;2024-02-04T10:39:55;10.13;;;3.80;;
72127;SDS011;60000;51.030;7.024;2024-02-04T10:42:24;10.00;;;4.00;;
72127;SDS011;60000;51.030;7.024;2024-02-04T10:44:51;9.52;;;3.78;;
72127;SDS011;60000;51.030;7.024;2024-02-04T10:47:20;9.35;;;3.60;;
72127;SDS011;60000;51.030;7.024;2024-02-04T10:49:51;6.93;;;2.92;;
72127;SDS011;60000;51.030;7.024;2024-02-04T10:52:20;9.38;;;3.75;;
72127;SDS011;60000;51.030;7.024;2024-02-04T10:54:48;7.32;;;3.30;;
72127;SDS011;60000;51.030;7.024;2024-02-04T10:57:16;7.85;;;3.75;;
72127;SDS011;60000;51.030;7.024;2024-02-04T10:59:45;7.05;;;2.95;;
72127;SDS011;60000;51.030;7.024;2024-02-04T11:02:12;8.68;;;3.28;;
72127;SDS011;60000;51.030;7.024;2024-02-04T11:04:40;6.63;;;2.60;;
72127;SDS011;60000;51.030;7.024;2024-02-04T11:07:07;6.78;;;2.75;;
72127;SDS011;60000;51.030;7.024;2024-02-04T11:09:34;7.45;;;2.50;;
72127;SDS011;60000;51.030;7.024;2024-02-04T11:12:01;6.82;;;2.25;;
72127;SDS011;60000;51.030;7.024;2024-02-04T11:14:31;6.10;;;2.22;;
72127;SDS011;60000;51.030;7.024;2024-02-04T11:17:19;6.30;;;2.67;;
72127;SDS011;60000;51.030;7.024;2024-02-04T11:20:00;7.97;;;3.20;;
72127;SDS011;60000;51.030;7.024;2024-02-04T11:28:12;6.18;;;3.20;;
72127;SDS011;60000;51.030;7.024;2024-02-04T11:30:38;6.37;;;3.03;;
72127;SDS011;60000;51.030;7.024;2024-02-04T11:33:04;6.72;;;3.30;;
72127;SDS011;60000;51.030;7.024;2024-02-04T11:35:32;8.98;;;3.08;;
72127;SDS011;60000;51.030;7.024;2024-02-04T11:37:58;6.65;;;3.25;;
72127;SDS011;60000;51.030;7.024;2024-02-04T11:40:30;7.35;;;3.22;;
72127;SDS011;60000;51.030;7.024;2024-02-04T11:43:10;6.80;;;2.50;;
72127;SDS011;60000;51.030;7.024;2024-02-04T11:45:39;7.88;;;2.95;;
72127;SDS011;60000;51.030;7.024;2024-02-04T11:48:12;6.90;;;3.28;;
72127;SDS011;60000;51.030;7.024;2024-02-04T11:50:37;7.30;;;3.10;;
72127;SDS011;60000;51.030;7.024;2024-02-04T11:53:05;9.43;;;2.97;;
72127;SDS011;60000;51.030;7.024;2024-02-04T11:55:33;8.43;;;3.17;;
72127;SDS011;60000;51.030;7.024;2024-02-04T11:58:00;9.45;;;3.92;;
72127;SDS011;60000;51.030;7.024;2024-02-04T12:00:25;9.67;;;3.27;;
72127;SDS011;60000;51.030;7.024;2024-02-04T12:03:03;7.47;;;3.65;;
72127;SDS011;60000;51.030;7.024;2024-02-04T12:05:36;8.65;;;3.40;;
72127;SDS011;60000;51.030;7.024;2024-02-04T12:08:03;8.13;;;3.08;;
72127;SDS011;60000;51.030;7.024;2024-02-04T12:10:30;8.00;;;2.90;;
72127;SDS011;60000;51.030;7.024;2024-02-04T12:12:57;8.13;;;3.53;;
72127;SDS011;60000;51.030;7.024;2024-02-04T12:15:24;8.52;;;3.58;;
72127;SDS011;60000;51.030;7.024;2024-02-04T12:17:50;7.30;;;3.13;;
72127;SDS011;60000;51.030;7.024;2024-02-04T12:20:15;7.35;;;3.33;;
72127;SDS011;60000;51.030;7.024;2024-02-04T12:22:41;9.55;;;3.60;;
72127;SDS011;60000;51.030;7.024;2024-02-04T12:25:06;6.87;;;3.70;;
72127;SDS011;60000;51.030;7.024;2024-02-04T12:27:32;8.30;;;4.07;;
72127;SDS011;60000;51.030;7.024;2024-02-04T12:29:58;8.03;;;4.00;;
72127;SDS011;60000;51.030;7.024;2024-02-04T12:32:24;8.93;;;3.97;;
72127;SDS011;60000;51.030;7.024;2024-02-04T12:34:49;6.93;;;3.90;;
72127;SDS011;60000;51.030;7.024;2024-02-04T12:37:19;7.53;;;3.55;;
72127;SDS011;60000;51.030;7.024;2024-02-04T12:39:44;8.80;;;3.30;;
72127;SDS011;60000;51.030;7.024;2024-02-04T12:42:09;6.63;;;2.72;;
72127;SDS011;60000;51.030;7.024;2024-02-04T12:44:35;8.18;;;3.38;;
72127;SDS011;60000;51.030;7.024;2024-02-04T12:47:01;7.53;;;3.17;;
72127;SDS011;60000;51.030;7.024;2024-02-04T12:49:27;9.52;;;2.83;;
72127;SDS011;60000;51.030;7.024;2024-02-04T12:52:03;8.10;;;3.00;;
72127;SDS011;60000;51.030;7.024;2024-02-04T12:54:30;6.43;;;3.40;;
72127;SDS011;60000;51.030;7.024;2024-02-04T12:56:55;7.83;;;3.50;;
72127;SDS011;60000;51.030;7.024;2024-02-04T12:59:27;6.70;;;3.22;;
72127;SDS011;60000;51.030;7.024;2024-02-04T13:01:55;7.27;;;2.97;;
72127;SDS011;60000;51.030;7.024;2024-02-04T13:04:21;7.90;;;3.90;;
72127;SDS011;60000;51.030;7.024;2024-02-04T13:06:47;6.90;;;3.37;;
72127;SDS011;60000;51.030;7.024;2024-02-04T13:09:14;6.72;;;3.35;;
72127;SDS011;60000;51.030;7.024;2024-02-04T13:11:41;6.95;;;3.35;;
72127;SDS011;60000;51.030;7.024;2024-02-04T13:14:07;8.75;;;3.70;;
72127;SDS011;60000;51.030;7.024;2024-02-04T13:16:32;7.30;;;3.50;;
72127;SDS011;60000;51.030;7.024;2024-02-04T13:19:00;7.23;;;3.90;;
72127;SDS011;60000;51.030;7.024;2024-02-04T13:21:26;7.45;;;3.90;;
72127;SDS011;60000;51.030;7.024;2024-02-04T13:23:52;7.20;;;3.92;;
72127;SDS011;60000;51.030;7.024;2024-02-04T13:26:17;7.00;;;3.27;;
72127;SDS011;60000;51.030;7.024;2024-02-04T13:28:43;7.63;;;4.03;;
72127;SDS011;60000;51.030;7.024;2024-02-04T13:31:08;7.93;;;4.00;;
72127;SDS011;60000;51.030;7.024;2024-02-04T13:33:33;9.50;;;4.97;;
72127;SDS011;60000;51.030;7.024;2024-02-04T13:35:59;8.57;;;4.70;;
72127;SDS011;60000;51.030;7.024;2024-02-04T13:38:24;8.93;;;4.17;;
72127;SDS011;60000;51.030;7.024;2024-02-04T13:40:49;8.87;;;3.97;;
72127;SDS011;60000;51.030;7.024;2024-02-04T13:43:15;7.40;;;3.90;;
72127;SDS011;60000;51.030;7.024;2024-02-04T13:45:41;6.97;;;3.30;;
72127;SDS011;60000;51.030;7.024;2024-02-04T13:48:06;7.80;;;4.50;;
72127;SDS011;60000;51.030;7.024;2024-02-04T13:50:32;8.17;;;3.93;;
72127;SDS011;60000;51.030;7.024;2024-02-04T13:52:57;9.02;;;4.20;;
72127;SDS011;60000;51.030;7.024;2024-02-04T13:55:24;8.20;;;4.13;;
72127;SDS011;60000;51.030;7.024;2024-02-04T13:57:49;10.13;;;3.70;;
72127;SDS011;60000;51.030;7.024;2024-02-04T14:00:15;11.73;;;5.50;;
72127;SDS011;60000;51.030;7.024;2024-02-04T14:02:42;8.05;;;4.40;;
72127;SDS011;60000;51.030;7.024;2024-02-04T14:05:08;7.80;;;3.80;;
72127;SDS011;60000;51.030;7.024;2024-02-04T14:07:33;7.90;;;3.87;;
72127;SDS011;60000;51.030;7.024;2024-02-04T14:09:58;7.77;;;3.10;;
72127;SDS011;60000;51.030;7.024;2024-02-04T14:12:24;7.60;;;3.20;;
72127;SDS011;60000;51.030;7.024;2024-02-04T14:14:49;7.43;;;3.37;;
72127;SDS011;60000;51.030;7.024;2024-02-04T14:17:14;7.03;;;2.97;;
72127;SDS011;60000;51.030;7.024;2024-02-04T14:19:40;7.50;;;2.80;;
72127;SDS011;60000;51.030;7.024;2024-02-04T14:22:05;6.53;;;3.20;;
72127;SDS011;60000;51.030;7.024;2024-02-04T14:24:31;7.43;;;3.03;;
72127;SDS011;60000;51.030;7.024;2024-02-04T14:26:57;7.33;;;2.90;;
72127;SDS011;60000;51.030;7.024;2024-02-04T14:29:23;7.20;;;2.45;;
72127;SDS011;60000;51.030;7.024;2024-02-04T14:31:49;6.20;;;2.70;;
72127;SDS011;60000;51.030;7.024;2024-02-04T14:34:14;6.70;;;2.47;;
72127;SDS011;60000;51.030;7.024;2024-02-04T14:36:40;7.33;;;3.50;;
72127;SDS011;60000;51.030;7.024;2024-02-04T14:39:05;7.63;;;2.33;;
72127;SDS011;60000;51.030;7.024;2024-02-04T14:41:31;5.75;;;2.00;;
72127;SDS011;60000;51.030;7.024;2024-02-04T14:43:56;5.10;;;2.33;;
72127;SDS011;60000;51.030;7.024;2024-02-04T14:46:21;6.17;;;2.57;;
72127;SDS011;60000;51.030;7.024;2024-02-04T14:48:47;5.73;;;2.30;;